Time;durP1;ratioP1;P1;durP2;ratioP2;P2;SDS_P1;SDS_P2;PMS_P1;PMS_P2;Temp;Humidity;BMP_temperature;BMP_pressure;BME280_temperature;BME280_humidity;BME280_pressure;Samples;Min_cycle;Max_cycle;Signal;HPM_P1;HPM_P2
2023/09/21 00:02:18;;;;;;;;;;;;;;;27.04;38.76;100924.28;5115620;28;1897;-32
2023/09/21 00:04:44;;;;;;;;;;;;;;;26.92;38.85;100926.50;5115472;28;1061;-33
2023/09/21 00:07:10;;;;;;;;;;;;;;;26.84;39.20;100923.84;5105413;28;954;-32
2023/09/21 00:09:35;;;;;;;;;;;;;;;27.12;38.61;100926.91;5109666;28;1197;-31
2023/09/21 00:12:01;;;;;;;;;;;;;;;26.83;39.76;100922.16;5115570;28;1049;-31
2023/09/21 00:14:26;;;;;;;;;;;;;;;27.11;38.71;100927.09;5098433;28;1104;-31
2023/09/21 00:16:53;;;;;;;;;;;;;;;27.07;38.93;100925.75;5096192;28;983;-33
2023/09/21 00:19:22;;;;;;;;;;;;;;;26.95;39.34;100920.75;5113364;28;1125;-33
2023/09/21 00:21:48;;;;;;;;;;;;;;;27.12;38.86;100920.66;5109856;28;1975;-31
2023/09/21 00:24:14;;;;;;;;;;;;;;;27.09;38.83;100921.84;5104642;28;1102;-34
2023/09/21 00:26:40;;;;;;;;;;;;;;;26.99;39.07;100916.66;5110177;28;1857;-35
2023/09/21 00:29:06;;;;;;;;;;;;;;;27.26;38.64;100919.03;5098371;28;1086;-33
2023/09/21 00:31:32;;;;;;;;;;;;;;;27.07;39.16;100918.50;5099640;28;1022;-29
2023/09/21 00:33:59;;;;;;;;;;;;;;;27.25;38.62;100923.63;5089821;28;2112;-31
2023/09/21 00:36:24;;;;;;;;;;;;;;;27.12;39.00;100917.97;5093536;28;1103;-32
2023/09/21 00:38:51;;;;;;;;;;;;;;;27.05;38.86;100922.38;5119699;28;1057;-32
2023/09/21 00:41:18;;;;;;;;;;;;;;;27.38;38.27;100924.88;5106874;28;1901;-29
2023/09/21 00:43:44;;;;;;;;;;;;;;;27.07;39.08;100926.63;5080896;28;1034;-30
2023/09/21 00:46:09;;;;;;;;;;;;;;;27.12;38.73;100926.91;5109131;28;971;-29
2023/09/21 00:48:38;;;;;;;;;;;;;;;27.16;38.80;100931.97;5067647;28;1765;-33
2023/09/21 00:51:07;;;;;;;;;;;;;;;26.98;39.48;100924.94;5081898;28;1138;-32
2023/09/21 00:53:33;;;;;;;;;;;;;;;27.23;38.73;100922.09;5113096;28;1225;-31
2023/09/21 00:55:59;;;;;;;;;;;;;;;27.18;39.05;100924.50;5077716;28;1242;-34
2023/09/21 00:58:25;;;;;;;;;;;;;;;27.16;39.01;100930.06;5087923;28;2665;-31
2023/09/21 01:00:54;;;;;;;;;;;;;;;27.20;38.99;100919.75;5093701;28;1995;-33
2023/09/21 01:03:20;;;;;;;;;;;;;;;27.13;38.94;100916.94;5093677;28;1097;-31
2023/09/21 01:05:48;;;;;;;;;;;;;;;27.30;38.56;100922.22;5118698;28;1077;-32
2023/09/21 01:08:18;;;;;;;;;;;;;;;27.09;39.34;100921.84;5098628;28;1046;-32
2023/09/21 01:10:44;;;;;;;;;;;;;;;27.29;38.92;100916.00;5104541;28;1118;-30
2023/09/21 01:13:11;;;;;;;;;;;;;;;27.20;38.96;100915.22;5092841;28;1037;-31
2023/09/21 01:15:37;;;;;;;;;;;;;;;27.05;39.57;100922.38;5114209;28;1038;-34
2023/09/21 01:18:03;;;;;;;;;;;;;;;27.36;38.65;100910.72;5100548;28;1149;-33
2023/09/21 01:20:32;;;;;;;;;;;;;;;27.05;39.17;100915.16;5086690;28;1078;-34
2023/09/21 01:22:57;;;;;;;;;;;;;;;27.14;39.12;100914.06;5093165;28;1980;-32
2023/09/21 01:25:23;;;;;;;;;;;;;;;27.31;38.89;100918.53;5117063;28;980;-35
2023/09/21 01:27:51;;;;;;;;;;;;;;;27.14;39.42;100907.84;5106434;28;2657;-31
2023/09/21 01:30:17;;;;;;;;;;;;;;;27.33;38.79;100906.50;5115053;28;1045;-32
2023/09/21 01:32:42;;;;;;;;;;;;;;;27.22;38.93;100907.78;5078411;28;1135;-32
2023/09/21 01:35:09;;;;;;;;;;;;;;;27.14;38.95;100911.34;5082610;28;1146;-29
2023/09/21 01:37:35;;;;;;;;;;;;;;;27.28;38.66;100908.91;5110172;28;997;-31
2023/09/21 01:40:15;;;;;;;;;;;;;;;27.08;39.25;100903.13;5111683;28;1041;-31
2023/09/21 01:42:40;;;;;;;;;;;;;;;27.20;38.79;100907.13;5098608;28;1917;-34
2023/09/21 01:45:13;;;;;;;;;;;;;;;27.10;39.25;100904.66;5101292;28;1066;-35
2023/09/21 01:47:39;;;;;;;;;;;;;;;27.16;39.28;100902.25;5088696;28;1113;-35
2023/09/21 01:50:06;;;;;;;;;;;;;;;27.26;38.43;100913.63;5102059;28;1039;-31
2023/09/21 01:52:32;;;;;;;;;;;;;;;27.07;39.29;100902.31;5106950;28;1089;-34
2023/09/21 01:55:03;;;;;;;;;;;;;;;27.21;38.88;100902.56;5112207;28;1205;-31
2023/09/21 01:57:28;;;;;;;;;;;;;;;27.12;39.12;100904.47;5086189;28;2354;-30
2023/09/21 01:59:54;;;;;;;;;;;;;;;27.18;38.68;100903.75;5087545;28;1261;-32
2023/09/21 02:02:20;;;;;;;;;;;;;;;27.27;38.65;100904.53;5100229;28;1921;-32
2023/09/21 02:04:47;;;;;;;;;;;;;;;27.12;39.01;100904.47;5099246;28;1054;-31
2023/09/21 02:07:14;;;;;;;;;;;;;;;27.22;38.61;100901.53;5106533;28;1129;-31
2023/09/21 02:09:40;;;;;;;;;;;;;;;27.23;38.80;100904.03;5089375;28;1110;-34
2023/09/21 02:12:06;;;;;;;;;;;;;;;27.07;39.08;100890.66;5115914;28;864;-31
2023/09/21 02:14:32;;;;;;;;;;;;;;;27.22;39.08;100896.13;5099123;28;990;-33
2023/09/21 02:16:58;;;;;;;;;;;;;;;27.10;39.14;100891.16;5091560;28;1086;-33
2023/09/21 02:19:23;;;;;;;;;;;;;;;27.20;38.94;100885.50;5112727;28;1077;-32
2023/09/21 02:21:50;;;;;;;;;;;;;;;27.29;38.79;100885.44;5098183;28;1905;-33
2023/09/21 02:24:15;;;;;;;;;;;;;;;27.08;39.20;100884.22;5079186;28;1106;-34
2023/09/21 02:26:42;;;;;;;;;;;;;;;27.21;38.91;100886.34;5107607;28;2477;-35
2023/09/21 02:29:09;;;;;;;;;;;;;;;27.07;39.48;100882.56;5104372;28;1031;-30
2023/09/21 02:31:37;;;;;;;;;;;;;;;27.12;39.41;100886.41;5082806;28;1606;-33
2023/09/21 02:34:02;;;;;;;;;;;;;;;27.32;38.74;100885.94;5099054;28;1065;-29
2023/09/21 02:36:28;;;;;;;;;;;;;;;27.16;38.95;100883.34;5096382;28;1024;-34
2023/09/21 02:38:53;;;;;;;;;;;;;;;27.24;39.00;100886.00;5112061;28;987;-34
2023/09/21 02:41:19;;;;;;;;;;;;;;;27.21;39.11;100887.19;5090420;28;1979;-31
2023/09/21 02:43:45;;;;;;;;;;;;;;;27.11;39.22;100894.69;5103109;28;1081;-33
2023/09/21 02:46:13;;;;;;;;;;;;;;;27.18;38.80;100901.03;5117181;28;994;-31
2023/09/21 02:48:38;;;;;;;;;;;;;;;27.12;39.08;100897.22;5108090;28;1069;-34
2023/09/21 02:51:04;;;;;;;;;;;;;;;27.16;38.88;100902.25;5096967;28;1057;-34
2023/09/21 02:53:30;;;;;;;;;;;;;;;27.13;38.90;100900.75;5105106;28;1090;-34
2023/09/21 02:55:55;;;;;;;;;;;;;;;27.14;38.85;100907.84;5084057;28;1317;-30
2023/09/21 02:58:23;;;;;;;;;;;;;;;27.13;39.30;100898.03;5085418;28;1783;-34
2023/09/21 03:00:51;;;;;;;;;;;;;;;27.03;39.33;100895.56;5068267;28;1992;-30
2023/09/21 03:03:20;;;;;;;;;;;;;;;26.96;39.43;100895.41;5082040;28;1167;-29
2023/09/21 03:05:47;;;;;;;;;;;;;;;27.11;39.40;100897.41;5085374;28;1244;-32
2023/09/21 03:08:15;;;;;;;;;;;;;;;26.98;39.78;100893.38;5085505;28;1113;-30
2023/09/21 03:10:47;;;;;;;;;;;;;;;27.16;38.92;100897.69;5085176;28;1195;-32
2023/09/21 03:13:17;;;;;;;;;;;;;;;27.08;39.37;100892.34;5079350;28;1110;-31
2023/09/21 03:15:44;;;;;;;;;;;;;;;27.34;38.11;100896.56;5093606;28;1099;-32
2023/09/21 03:18:10;;;;;;;;;;;;;;;27.23;38.41;100898.66;5107743;28;1121;-32
2023/09/21 03:20:36;;;;;;;;;;;;;;;27.21;38.55;100906.06;5111140;28;1091;-31
2023/09/21 03:23:09;;;;;;;;;;;;;;;27.30;38.60;100904.16;5078041;28;1981;-33
2023/09/21 03:25:40;;;;;;;;;;;;;;;27.29;38.75;100894.41;5098174;28;1338;-34
2023/09/21 03:28:15;;;;;;;;;;;;;;;27.37;38.36;100894.34;5102794;28;2670;-31
2023/09/21 03:30:48;;;;;;;;;;;;;;;27.41;38.45;100891.25;5097927;28;1094;-32
2023/09/21 03:33:15;;;;;;;;;;;;;;;26.74;39.56;100886.28;5086364;28;1316;-29
2023/09/21 03:35:41;;;;;;;;;;;;;;;26.43;40.60;100889.78;5109170;28;1112;-29
2023/09/21 03:38:10;;;;;;;;;;;;;;;26.38;40.51;100890.31;5089715;28;1145;-32
2023/09/21 03:40:36;;;;;;;;;;;;;;;26.17;40.64;100887.16;5097771;28;1101;-27
2023/09/21 03:43:02;;;;;;;;;;;;;;;26.26;40.72;100895.22;5086327;28;1977;-30
2023/09/21 03:45:28;;;;;;;;;;;;;;;26.07;41.35;100891.91;5109943;28;1209;-29
2023/09/21 03:47:53;;;;;;;;;;;;;;;26.12;41.15;100904.88;5083547;28;1123;-31
2023/09/21 03:50:19;;;;;;;;;;;;;;;26.10;41.31;100896.09;5092413;28;1136;-30
2023/09/21 03:52:45;;;;;;;;;;;;;;;26.01;41.38;100889.88;5065051;28;1211;-30
2023/09/21 03:55:15;;;;;;;;;;;;;;;26.07;40.90;100896.44;5113878;28;1039;-30
2023/09/21 03:57:41;;;;;;;;;;;;;;;26.55;40.40;100892.94;5083768;28;2188;-29
2023/09/21 04:00:26;;;;;;;;;;;;;;;26.84;39.64;100897.69;5077154;28;1098;-30
2023/09/21 04:02:53;;;;;;;;;;;;;;;26.60;40.19;100898.66;5074525;28;2000;-29
2023/09/21 04:05:19;;;;;;;;;;;;;;;26.89;40.10;100899.88;5081601;28;1096;-29
2023/09/21 04:07:46;;;;;;;;;;;;;;;26.82;40.30;100904.28;5092279;28;1177;-30
2023/09/21 04:10:12;;;;;;;;;;;;;;;26.64;41.09;100897.31;5064599;28;1754;-28
2023/09/21 04:12:39;;;;;;;;;;;;;;;26.72;40.68;100893.72;5074493;28;1332;-29
2023/09/21 04:15:08;;;;;;;;;;;;;;;26.59;40.96;100894.28;5077728;28;1276;-30
2023/09/21 04:17:35;;;;;;;;;;;;;;;26.59;41.14;100903.19;5087442;28;1217;-28
2023/09/21 04:20:00;;;;;;;;;;;;;;;26.50;41.53;100902.41;5076707;28;1114;-26
2023/09/21 04:22:26;;;;;;;;;;;;;;;26.43;41.91;100901.41;5076297;28;1914;-17
2023/09/21 04:24:52;;;;;;;;;;;;;;;26.37;41.38;100878.72;5068687;28;1942;-17
2023/09/21 04:27:18;;;;;;;;;;;;;;;26.63;41.47;100898.31;5071654;28;1987;-18
2023/09/21 04:29:43;;;;;;;;;;;;;;;26.49;41.49;100903.41;5094867;28;978;-18
2023/09/21 04:32:09;;;;;;;;;;;;;;;26.50;41.66;100905.13;5076702;28;1286;-17
2023/09/21 04:34:36;;;;;;;;;;;;;;;26.52;41.39;100908.50;5077030;28;1078;-17
2023/09/21 04:37:02;;;;;;;;;;;;;;;26.49;41.39;100908.81;5071605;28;1097;-17
2023/09/21 04:39:27;;;;;;;;;;;;;;;26.50;41.66;100915.91;5077385;28;1196;-17
2023/09/21 04:41:53;;;;;;;;;;;;;;;26.59;41.36;100911.28;5095009;28;1991;-18
2023/09/21 04:44:18;;;;;;;;;;;;;;;26.47;41.70;100907.31;5095229;28;1185;-17
2023/09/21 04:46:44;;;;;;;;;;;;;;;26.67;41.19;100913.13;5075579;28;1289;-17
2023/09/21 04:49:10;;;;;;;;;;;;;;;26.66;41.25;100911.44;5067601;28;1345;-18
2023/09/21 04:51:35;;;;;;;;;;;;;;;26.60;41.84;100913.00;5077120;28;1177;-17
2023/09/21 04:54:02;;;;;;;;;;;;;;;26.67;41.40;100913.13;5077002;28;1386;-17
2023/09/21 04:56:28;;;;;;;;;;;;;;;26.65;41.75;100917.84;5076615;28;2490;-28
2023/09/21 04:58:55;;;;;;;;;;;;;;;26.43;41.96;100914.06;5090568;28;1335;-28
2023/09/21 05:01:24;;;;;;;;;;;;;;;26.55;41.86;100906.44;5075966;28;1910;-26
2023/09/21 05:03:50;;;;;;;;;;;;;;;26.53;41.96;100903.91;5064392;28;1156;-27
2023/09/21 05:06:18;;;;;;;;;;;;;;;26.97;41.28;100902.50;5080264;28;1120;-26
2023/09/21 05:08:44;;;;;;;;;;;;;;;27.19;40.11;100904.59;5080380;28;1186;-28
2023/09/21 05:11:10;;;;;;;;;;;;;;;27.34;39.82;100907.34;5080429;28;1118;-28
2023/09/21 05:13:36;;;;;;;;;;;;;;;27.45;39.60;100911.47;5099260;28;899;-28
2023/09/21 05:16:03;;;;;;;;;;;;;;;27.42;39.85;100909.13;5098471;28;1579;-26
2023/09/21 05:18:29;;;;;;;;;;;;;;;27.30;40.60;100903.31;5095388;28;1292;-26
2023/09/21 05:20:55;;;;;;;;;;;;;;;27.37;39.78;100905.13;5097760;28;1910;-29
2023/09/21 05:23:20;;;;;;;;;;;;;;;27.41;39.65;100899.38;5099105;28;1163;-26
2023/09/21 05:25:46;;;;;;;;;;;;;;;27.41;39.44;100899.38;5098313;28;971;-27
2023/09/21 05:28:11;;;;;;;;;;;;;;;27.12;40.96;100896.38;5098326;28;2109;-28
2023/09/21 05:30:38;;;;;;;;;;;;;;;27.09;41.37;100902.13;5098358;28;994;-28
2023/09/21 05:33:05;;;;;;;;;;;;;;;27.24;41.34;100908.41;5098518;28;1103;-29
2023/09/21 05:35:31;;;;;;;;;;;;;;;27.20;41.14;100898.16;5098564;28;1077;-25
2023/09/21 05:37:56;;;;;;;;;;;;;;;27.21;41.10;100903.38;5087565;28;908;-29
2023/09/21 05:40:22;;;;;;;;;;;;;;;27.20;41.20;100904.41;5095290;28;1091;-30
2023/09/21 05:42:47;;;;;;;;;;;;;;;27.41;40.64;100907.47;5098018;28;1905;-27
2023/09/21 05:45:13;;;;;;;;;;;;;;;27.53;40.52;100906.00;5098325;28;1062;-26
2023/09/21 05:47:38;;;;;;;;;;;;;;;27.67;39.75;100909.78;5098214;28;1089;-30
2023/09/21 05:50:05;;;;;;;;;;;;;;;27.78;39.40;100913.09;5098384;28;1093;-27
2023/09/21 05:52:33;;;;;;;;;;;;;;;27.69;39.89;100915.03;5098683;28;1034;-31
2023/09/21 05:54:59;;;;;;;;;;;;;;;27.98;39.21;100910.69;5097727;28;1037;-29
2023/09/21 05:57:24;;;;;;;;;;;;;;;28.06;39.09;100909.78;5098010;28;2219;-26
2023/09/21 05:59:52;;;;;;;;;;;;;;;27.93;39.66;100913.94;5097659;28;1149;-27
2023/09/21 06:02:17;;;;;;;;;;;;;;;27.94;39.40;100907.53;5087331;28;1965;-26
2023/09/21 06:04:43;;;;;;;;;;;;;;;27.97;39.32;100919.81;5095465;28;1026;-27
2023/09/21 06:07:09;;;;;;;;;;;;;;;27.99;39.83;100920.50;5097674;28;1025;-31
2023/09/21 06:09:34;;;;;;;;;;;;;;;28.14;39.07;100916.94;5097691;28;1014;-27
2023/09/21 06:12:00;;;;;;;;;;;;;;;28.18;39.22;100920.94;5097784;28;990;-27
2023/09/21 06:14:25;;;;;;;;;;;;;;;28.19;39.16;100931.59;5097697;28;1150;-23
2023/09/21 06:16:51;;;;;;;;;;;;;;;28.21;38.95;100928.72;5097216;28;995;-27
2023/09/21 06:19:17;;;;;;;;;;;;;;;28.30;38.71;100924.03;5097747;28;1142;-27
2023/09/21 06:21:45;;;;;;;;;;;;;;;28.28;39.02;100934.22;5087282;28;1914;-27
2023/09/21 06:24:11;;;;;;;;;;;;;;;28.05;39.09;100924.31;5088394;28;1047;-25
2023/09/21 06:26:36;;;;;;;;;;;;;;;28.09;39.37;100929.16;5090136;28;1904;-26
2023/09/21 06:29:02;;;;;;;;;;;;;;;28.38;38.95;100934.78;5096965;28;1033;-29
2023/09/21 06:31:28;;;;;;;;;;;;;;;28.42;39.31;100932.56;5095357;28;1099;-28
2023/09/21 06:33:57;;;;;;;;;;;;;;;28.42;39.42;100936.09;5094221;28;1070;-27
2023/09/21 06:36:22;;;;;;;;;;;;;;;28.34;39.74;100936.19;5091964;28;1035;-29
2023/09/21 06:38:50;;;;;;;;;;;;;;;28.47;39.37;100936.38;5097450;28;836;-27
2023/09/21 06:41:15;;;;;;;;;;;;;;;28.41;39.24;100936.28;5096497;28;1993;-28
2023/09/21 06:43:42;;;;;;;;;;;;;;;28.45;39.17;100937.59;5088486;28;1010;-27
2023/09/21 06:46:08;;;;;;;;;;;;;;;28.28;39.21;100932.34;5096430;28;1045;-25
2023/09/21 06:48:33;;;;;;;;;;;;;;;28.02;41.51;100935.50;5097218;28;1106;-24
2023/09/21 06:50:59;;;;;;;;;;;;;;;28.39;41.27;100931.06;5096797;28;932;-24
2023/09/21 06:53:24;;;;;;;;;;;;;;;28.56;40.59;100930.88;5096452;28;1014;-24
2023/09/21 06:55:50;;;;;;;;;;;;;;;28.34;40.34;100938.91;5096427;28;975;-25
2023/09/21 06:58:16;;;;;;;;;;;;;;;28.55;40.26;100940.00;5096578;28;2077;-26
2023/09/21 07:00:42;;;;;;;;;;;;;;;28.69;39.42;100950.00;5095917;28;1077;-26
2023/09/21 07:03:08;;;;;;;;;;;;;;;28.66;39.65;100944.94;5096097;28;1917;-27
2023/09/21 07:05:34;;;;;;;;;;;;;;;28.81;39.49;100947.63;5094848;28;1045;-27
2023/09/21 07:07:59;;;;;;;;;;;;;;;28.46;40.89;100942.00;5096976;28;1122;-25
2023/09/21 07:10:25;;;;;;;;;;;;;;;27.75;43.08;100938.63;5094136;28;1304;-26
2023/09/21 07:12:50;;;;;;;;;;;;;;;27.85;42.94;100941.06;5096615;28;1042;-26
2023/09/21 07:15:16;;;;;;;;;;;;;;;28.28;42.00;100948.56;5095465;28;1069;-25
2023/09/21 07:17:41;;;;;;;;;;;;;;;28.69;40.71;100943.72;5096021;28;1066;-27
2023/09/21 07:20:07;;;;;;;;;;;;;;;28.60;37.45;100949.25;5095540;28;995;-25
2023/09/21 07:22:33;;;;;;;;;;;;;;;29.17;38.27;100951.38;5096252;28;1985;-25
2023/09/21 07:25:02;;;;;;;;;;;;;;;29.04;38.60;100948.53;5095786;28;999;-23
2023/09/21 07:27:28;;;;;;;;;;;;;;;29.10;38.61;100947.75;5090752;28;1849;-24
2023/09/21 07:29:56;;;;;;;;;;;;;;;29.17;38.62;100945.13;5086454;28;995;-26
2023/09/21 07:32:28;;;;;;;;;;;;;;;29.20;38.84;100951.00;5095287;28;1058;-25
2023/09/21 07:34:54;;;;;;;;;;;;;;;29.38;38.23;100947.00;5095959;28;1424;-26
2023/09/21 07:37:19;;;;;;;;;;;;;;;29.16;38.74;100948.88;5083958;28;1098;-25
2023/09/21 07:39:45;;;;;;;;;;;;;;;28.98;39.09;100950.13;5095263;28;1033;-24
2023/09/21 07:42:10;;;;;;;;;;;;;;;29.39;38.09;100943.28;5095765;28;1980;-28
2023/09/21 07:44:37;;;;;;;;;;;;;;;28.78;38.89;100945.28;5095072;28;1065;-28
2023/09/21 07:47:02;;;;;;;;;;;;;;;28.33;40.35;100939.91;5097855;28;1010;-24
2023/09/21 07:49:28;;;;;;;;;;;;;;;28.79;39.45;100946.13;5109673;28;1178;-29
2023/09/21 07:51:56;;;;;;;;;;;;;;;28.13;41.21;100945.03;5086531;28;1106;-25
2023/09/21 07:54:22;;;;;;;;;;;;;;;28.36;40.99;100944.97;5105399;28;1126;-24
2023/09/21 07:56:48;;;;;;;;;;;;;;;29.36;38.73;100942.81;5102503;28;1849;-27
2023/09/21 07:59:13;;;;;;;;;;;;;;;29.44;37.99;100948.09;5105521;28;1026;-28
2023/09/21 08:01:40;;;;;;;;;;;;;;;29.21;38.65;100941.84;5094311;28;1906;-24
2023/09/21 08:04:07;;;;;;;;;;;;;;;28.62;40.41;100934.69;5087805;28;1331;-25
2023/09/21 08:06:33;;;;;;;;;;;;;;;28.60;40.38;100932.16;5095547;28;1046;-24
2023/09/21 08:08:58;;;;;;;;;;;;;;;29.25;38.08;100930.59;5098017;28;1010;-24
2023/09/21 08:11:24;;;;;;;;;;;;;;;29.87;37.68;100944.53;5096137;28;1094;-24
2023/09/21 08:13:49;;;;;;;;;;;;;;;30.02;37.21;100944.41;5091170;28;1027;-25
2023/09/21 08:16:15;;;;;;;;;;;;;;;30.28;36.43;100945.66;5095287;28;1053;-27
2023/09/21 08:18:40;;;;;;;;;;;;;;;30.25;36.55;100945.19;5095328;28;1010;-26
2023/09/21 08:21:06;;;;;;;;;;;;;;;30.27;36.63;100937.72;5095650;28;1922;-24
2023/09/21 08:23:32;;;;;;;;;;;;;;;30.30;36.36;100945.44;5087156;28;1089;-25
2023/09/21 08:25:58;;;;;;;;;;;;;;;30.30;36.38;100940.00;5089910;28;1014;-26
2023/09/21 08:28:24;;;;;;;;;;;;;;;30.26;36.38;100944.19;5088349;28;2212;-25
2023/09/21 08:30:50;;;;;;;;;;;;;;;30.40;36.22;100937.78;5095930;28;1062;-25
2023/09/21 08:33:17;;;;;;;;;;;;;;;30.24;36.45;100932.69;5077192;28;1107;-28
2023/09/21 08:35:43;;;;;;;;;;;;;;;29.97;36.16;100922.47;5094662;28;1106;-25
2023/09/21 08:38:09;;;;;;;;;;;;;;;30.02;37.24;100919.16;5100908;28;1161;-25
2023/09/21 08:40:35;;;;;;;;;;;;;;;29.22;39.44;100921.00;5111069;28;1070;-24
2023/09/21 08:43:01;;;;;;;;;;;;;;;30.03;37.17;100921.69;5067315;28;1991;-25
2023/09/21 08:45:27;;;;;;;;;;;;;;;30.27;36.97;100924.13;5080833;28;1113;-26
2023/09/21 08:47:52;;;;;;;;;;;;;;;30.27;37.04;100924.13;5098764;28;1462;-28
2023/09/21 08:50:18;;;;;;;;;;;;;;;30.48;36.47;100934.06;5081312;28;1099;-29
2023/09/21 08:52:48;;;;;;;;;;;;;;;30.57;36.31;100923.03;5112431;28;982;-24
2023/09/21 08:55:13;;;;;;;;;;;;;;;30.61;36.20;100927.03;5098604;28;1085;-25
2023/09/21 08:57:39;;;;;;;;;;;;;;;30.41;36.80;100909.59;5090606;28;2449;-27
2023/09/21 09:00:11;;;;;;;;;;;;;;;30.70;35.98;100920.34;5109859;28;1215;-29
2023/09/21 09:02:37;;;;;;;;;;;;;;;30.53;36.18;100922.63;5105793;28;1909;-28
2023/09/21 09:05:08;;;;;;;;;;;;;;;30.79;35.99;100919.16;5108235;28;1162;-27
2023/09/21 09:07:40;;;;;;;;;;;;;;;30.97;35.73;100917.75;5115895;28;978;-25
2023/09/21 09:10:07;;;;;;;;;;;;;;;30.72;35.58;100909.28;5109303;28;1085;-26
2023/09/21 09:12:32;;;;;;;;;;;;;;;30.80;35.67;100911.84;5092982;28;1248;-31
2023/09/21 09:15:02;;;;;;;;;;;;;;;30.59;35.99;100923.66;5090839;28;1058;-27
2023/09/21 09:17:31;;;;;;;;;;;;;;;30.68;36.10;100903.44;5098159;28;1037;-26
2023/09/21 09:19:57;;;;;;;;;;;;;;;30.37;35.98;100915.63;5085119;28;1139;-27
2023/09/21 09:22:23;;;;;;;;;;;;;;;30.98;35.37;100913.16;5095033;28;1987;-25
2023/09/21 09:24:49;;;;;;;;;;;;;;;30.91;35.34;100903.09;5093293;28;1285;-28
2023/09/21 09:27:15;;;;;;;;;;;;;;;30.83;35.50;100911.44;5091698;28;1835;-24
2023/09/21 09:29:48;;;;;;;;;;;;;;;31.01;35.09;100897.28;5088294;28;1327;-28
2023/09/21 09:32:15;;;;;;;;;;;;;;;31.28;34.57;100891.88;5079241;28;1277;-29
2023/09/21 09:34:40;;;;;;;;;;;;;;;30.79;34.60;100883.84;5081215;28;1066;-29
2023/09/21 09:37:06;;;;;;;;;;;;;;;30.92;34.96;100879.50;5084416;28;932;-27
2023/09/21 09:39:33;;;;;;;;;;;;;;;29.69;36.99;100896.22;5097237;28;1077;-26
2023/09/21 09:41:58;;;;;;;;;;;;;;;30.55;35.98;100904.22;5103536;28;1902;-26
2023/09/21 09:44:24;;;;;;;;;;;;;;;31.01;34.80;100893.75;5080886;28;1000;-25
2023/09/21 09:46:51;;;;;;;;;;;;;;;30.98;34.75;100902.31;5079733;28;1057;-25
2023/09/21 09:49:17;;;;;;;;;;;;;;;31.34;33.70;100906.53;5080245;28;1138;-26
2023/09/21 09:51:44;;;;;;;;;;;;;;;31.19;34.31;100916.75;5077435;28;916;-29
2023/09/21 09:54:11;;;;;;;;;;;;;;;30.92;34.98;100907.50;5086769;28;1134;-29
2023/09/21 09:56:42;;;;;;;;;;;;;;;31.28;33.82;100904.66;5091552;28;1824;-25
2023/09/21 09:59:11;;;;;;;;;;;;;;;30.58;35.85;100914.66;5088363;28;979;-27
2023/09/21 10:01:37;;;;;;;;;;;;;;;30.91;34.67;100908.53;5085574;28;1981;-31
2023/09/21 10:04:06;;;;;;;;;;;;;;;31.24;34.13;100909.66;5084484;28;975;-25
2023/09/21 10:06:34;;;;;;;;;;;;;;;31.21;34.13;100904.63;5092419;28;1176;-24
2023/09/21 10:09:00;;;;;;;;;;;;;;;31.40;34.12;100886.69;5089792;28;1355;-25
2023/09/21 10:11:27;;;;;;;;;;;;;;;31.27;34.58;100900.25;5094281;28;1059;-24
2023/09/21 10:13:54;;;;;;;;;;;;;;;31.24;34.47;100895.22;5070706;28;1371;-26
2023/09/21 10:16:20;;;;;;;;;;;;;;;31.40;34.03;100899.44;5084277;28;1146;-25
2023/09/21 10:18:46;;;;;;;;;;;;;;;31.71;33.16;100906.13;5084454;28;1277;-27
2023/09/21 10:21:24;;;;;;;;;;;;;;;31.48;33.95;100891.06;5081958;28;1902;-25
2023/09/21 10:24:06;;;;;;;;;;;;;;;31.32;34.11;100889.59;5084426;28;1078;-26
2023/09/21 10:26:53;;;;;;;;;;;;;;;30.08;36.44;100896.66;5082391;28;1965;-25
2023/09/21 10:29:28;;;;;;;;;;;;;;;29.98;36.90;100894.31;5092406;28;1205;-27
2023/09/21 10:31:55;;;;;;;;;;;;;;;29.82;37.25;100890.88;5096846;28;1058;-28
2023/09/21 10:34:22;;;;;;;;;;;;;;;30.65;35.47;100872.09;5109095;28;1062;-24
2023/09/21 10:36:50;;;;;;;;;;;;;;;30.64;35.68;100894.03;5091392;28;1221;-28
2023/09/21 10:39:25;;;;;;;;;;;;;;;30.27;36.65;100903.28;5090430;28;1511;-24
2023/09/21 10:41:54;;;;;;;;;;;;;;;31.51;34.23;100889.81;5088547;28;1898;-26
2023/09/21 10:44:39;;;;;;;;;;;;;;;31.81;33.47;100892.09;5078345;28;1085;-24
2023/09/21 10:47:04;;;;;;;;;;;;;;;32.02;33.28;100882.03;5096256;28;1154;-26
2023/09/21 10:49:33;;;;;;;;;;;;;;;32.15;32.90;100889.31;5067324;28;1111;-26
2023/09/21 10:51:59;;;;;;;;;;;;;;;30.04;36.99;100876.41;5095330;28;1078;-25
2023/09/21 10:54:25;;;;;;;;;;;;;;;29.99;37.18;100877.00;5096798;28;1107;-28
2023/09/21 10:56:50;;;;;;;;;;;;;;;30.03;37.13;100885.59;5106360;28;2454;-25
2023/09/21 10:59:17;;;;;;;;;;;;;;;30.92;35.59;100868.66;5116297;28;1029;-27
2023/09/21 11:01:43;;;;;;;;;;;;;;;31.25;35.15;100861.56;5111573;28;1901;-24
2023/09/21 11:04:10;;;;;;;;;;;;;;;30.32;36.67;100875.53;5086925;28;1288;-30
2023/09/21 11:06:37;;;;;;;;;;;;;;;31.27;34.57;100854.88;5097915;28;1064;-32
2023/09/21 11:09:02;;;;;;;;;;;;;;;31.34;35.30;100867.63;5112904;28;1101;-26
2023/09/21 11:11:28;;;;;;;;;;;;;;;31.43;35.30;100866.38;5096780;28;1046;-26
2023/09/21 11:13:53;;;;;;;;;;;;;;;31.96;33.16;100858.38;5095728;28;1037;-27
2023/09/21 11:16:19;;;;;;;;;;;;;;;32.06;33.73;100858.78;5095883;28;983;-27
2023/09/21 11:18:44;;;;;;;;;;;;;;;32.32;33.21;100856.16;5095990;28;1188;-26
2023/09/21 11:21:11;;;;;;;;;;;;;;;32.01;33.63;100864.84;5095871;28;1910;-30
2023/09/21 11:23:43;;;;;;;;;;;;;;;31.87;34.18;100850.44;5096049;28;1087;-28
2023/09/21 11:26:11;;;;;;;;;;;;;;;32.35;32.86;100845.69;5065742;28;2475;-27
2023/09/21 11:28:37;;;;;;;;;;;;;;;32.62;32.53;100844.72;5095169;28;891;-27
2023/09/21 11:31:05;;;;;;;;;;;;;;;32.65;32.84;100844.28;5096019;28;1114;-29
2023/09/21 11:33:34;;;;;;;;;;;;;;;33.11;31.83;100833.31;5097216;28;1094;-25
2023/09/21 11:35:59;;;;;;;;;;;;;;;32.83;31.96;100843.53;5099685;28;1133;-25
2023/09/21 11:38:25;;;;;;;;;;;;;;;32.42;32.32;100833.91;5076323;28;1142;-26
2023/09/21 11:40:51;;;;;;;;;;;;;;;32.38;32.67;100826.19;5096175;28;1240;-26
2023/09/21 11:43:16;;;;;;;;;;;;;;;32.61;32.57;100827.59;5090559;28;1905;-26
2023/09/21 11:45:45;;;;;;;;;;;;;;;32.81;32.23;100833.94;5087096;28;1066;-29
2023/09/21 11:48:12;;;;;;;;;;;;;;;32.44;32.52;100824.50;5094342;28;1097;-29
2023/09/21 11:50:38;;;;;;;;;;;;;;;32.99;31.86;100841.34;5101838;28;1077;-27
2023/09/21 11:53:07;;;;;;;;;;;;;;;32.91;31.62;100837.00;5095866;28;920;-26
2023/09/21 11:55:33;;;;;;;;;;;;;;;32.50;32.52;100833.66;5093398;28;1046;-27
2023/09/21 11:58:08;;;;;;;;;;;;;;;32.45;32.49;100834.31;5074582;28;1769;-26
2023/09/21 12:03:45;;;;;;;;;;;;;;;32.55;32.49;100833.88;5043225;28;1483;-25
2023/09/21 12:06:12;;;;;;;;;;;;;;;32.18;33.07;100833.63;5073356;28;1111;-27
2023/09/21 12:08:37;;;;;;;;;;;;;;;31.80;33.20;100822.41;5095632;28;1026;-26
2023/09/21 12:11:04;;;;;;;;;;;;;;;31.58;34.52;100822.66;5095092;28;1047;-31
2023/09/21 12:13:29;;;;;;;;;;;;;;;31.69;33.71;100815.75;5095445;28;1094;-30
2023/09/21 12:15:58;;;;;;;;;;;;;;;31.71;33.69;100816.38;5077265;28;1035;-26
2023/09/21 12:18:26;;;;;;;;;;;;;;;31.47;34.00;100812.44;5095508;28;1055;-27
2023/09/21 12:20:56;;;;;;;;;;;;;;;31.73;33.76;100816.19;5095013;28;1095;-28
2023/09/21 12:23:25;;;;;;;;;;;;;;;31.30;34.62;100815.56;5086053;28;1906;-27
2023/09/21 12:25:50;;;;;;;;;;;;;;;31.70;34.18;100813.88;5095172;28;1030;-27
2023/09/21 12:28:17;;;;;;;;;;;;;;;31.13;34.01;100809.75;5094032;28;2203;-24
2023/09/21 12:30:43;;;;;;;;;;;;;;;30.72;35.02;100796.09;5079008;28;983;-24
2023/09/21 12:33:09;;;;;;;;;;;;;;;26.07;42.28;100802.94;5087434;28;1043;-25
2023/09/21 12:35:35;;;;;;;;;;;;;;;23.16;46.39;100801.19;5082861;28;1331;-24
2023/09/21 12:38:00;;;;;;;;;;;;;;;22.54;48.71;100799.22;5080308;28;1335;-25
2023/09/21 12:40:26;;;;;;;;;;;;;;;23.06;50.82;100793.22;5086532;28;1063;-26
2023/09/21 12:42:52;;;;;;;;;;;;;;;23.35;50.85;100799.31;5088291;28;1902;-29
2023/09/21 12:45:17;;;;;;;;;;;;;;;23.35;51.15;100785.91;5081617;28;1213;-25
2023/09/21 12:47:46;;;;;;;;;;;;;;;23.10;52.41;100794.63;5101945;28;1099;-24
2023/09/21 12:50:12;;;;;;;;;;;;;;;22.92;52.67;100791.09;5094166;28;1334;-25